Time;durP1;ratioP1;P1;durP2;ratioP2;P2;SDS_P1;SDS_P2;PMS_P1;PMS_P2;Temp;Humidity;BMP_temperature;BMP_pressure;BME280_temperature;BME280_humidity;BME280_pressure;Samples;Min_cycle;Max_cycle;Signal;HPM_P1;HPM_P2
2023/02/01 00:01:42;;;;;;;5.25;2.03;;;21.60;31.60;;;;;;5060645;28;20086;-46
2023/02/01 00:04:08;;;;;;;5.95;1.85;;;21.60;31.60;;;;;;5060726;28;20104;-46
2023/02/01 00:06:34;;;;;;;5.32;2.13;;;21.60;31.50;;;;;;5060071;28;20032;-46
2023/02/01 00:09:00;;;;;;;5.45;1.95;;;21.60;31.50;;;;;;5061922;28;20493;-48
2023/02/01 00:11:26;;;;;;;4.75;1.80;;;21.60;31.50;;;;;;5060851;28;20115;-50
2023/02/01 00:13:52;;;;;;;5.97;2.00;;;21.60;31.50;;;;;;5063456;28;20337;-49
2023/02/01 00:16:21;;;;;;;5.38;1.77;;;21.60;31.50;;;;;;5062987;28;20376;-50
2023/02/01 00:18:49;;;;;;;5.20;1.67;;;21.50;31.50;;;;;;5037585;28;20048;-45
2023/02/01 00:21:17;;;;;;;5.47;1.95;;;21.50;31.40;;;;;;5063075;28;20029;-47
2023/02/01 00:23:43;;;;;;;5.40;2.03;;;21.60;31.40;;;;;;5057461;28;20032;-53
2023/02/01 00:26:22;;;;;;;3.85;1.60;;;21.50;31.40;;;;;;5057973;28;20079;-51
2023/02/01 00:28:49;;;;;;;4.70;1.75;;;21.50;31.40;;;;;;5060964;28;20029;-53
2023/02/01 00:31:15;;;;;;;5.88;2.22;;;21.50;31.40;;;;;;5055690;28;20057;-47
2023/02/01 00:33:41;;;;;;;5.15;2.00;;;21.50;31.40;;;;;;5058926;28;20032;-48
2023/02/01 00:36:09;;;;;;;4.43;1.92;;;21.50;31.30;;;;;;5061828;28;20116;-48
2023/02/01 00:38:37;;;;;;;4.03;1.45;;;21.50;31.30;;;;;;5060902;28;20040;-56
2023/02/01 00:41:12;;;;;;;7.78;2.28;;;21.40;31.30;;;;;;5065756;28;20508;-48
2023/02/01 00:43:38;;;;;;;5.25;2.03;;;21.40;31.30;;;;;;5067572;28;20021;-50
2023/02/01 00:46:05;;;;;;;7.43;2.13;;;21.40;31.30;;;;;;5064285;28;20040;-47
2023/02/01 00:48:31;;;;;;;4.40;1.70;;;21.40;31.30;;;;;;5061115;28;20329;-51
2023/02/01 00:51:24;;;;;;;6.85;2.35;;;21.40;31.30;;;;;;5065218;28;20119;-47
2023/02/01 00:53:50;;;;;;;4.25;1.55;;;21.40;31.20;;;;;;5057725;28;21610;-52
2023/02/01 00:56:16;;;;;;;5.18;1.90;;;21.40;31.30;;;;;;5065119;28;20098;-52
2023/02/01 00:58:43;;;;;;;6.93;2.35;;;21.40;31.30;;;;;;5047493;28;20098;-47
2023/02/01 01:01:24;;;;;;;4.55;1.70;;;21.40;31.30;;;;;;5062577;28;20024;-49
2023/02/01 01:03:59;;;;;;;5.18;1.52;;;21.40;31.30;;;;;;5065768;28;20043;-49
2023/02/01 01:06:28;;;;;;;6.72;1.77;;;21.30;31.30;;;;;;5044283;28;20024;-49
2023/02/01 01:08:56;;;;;;;4.88;2.00;;;21.30;31.30;;;;;;5059100;28;20052;-51
2023/02/01 01:11:34;;;;;;;4.20;1.75;;;21.30;31.30;;;;;;5045558;28;20035;-49
2023/02/01 01:14:00;;;;;;;4.55;1.63;;;21.30;31.30;;;;;;5060526;28;20037;-45
2023/02/01 01:16:30;;;;;;;4.70;1.63;;;21.30;31.30;;;;;;5056732;28;20068;-46
2023/02/01 01:18:56;;;;;;;4.40;1.70;;;21.30;31.40;;;;;;5058539;28;20028;-49
2023/02/01 01:21:22;;;;;;;4.70;1.70;;;21.30;31.30;;;;;;5041070;28;20029;-51
2023/02/01 01:23:48;;;;;;;5.05;1.73;;;21.20;31.30;;;;;;5069118;28;20029;-50
2023/02/01 01:26:18;;;;;;;4.63;1.73;;;21.20;31.30;;;;;;5045650;28;20029;-49
2023/02/01 01:28:44;;;;;;;4.78;1.60;;;21.20;31.30;;;;;;5045084;28;20036;-48
2023/02/01 01:31:12;;;;;;;4.72;2.05;;;21.20;31.40;;;;;;5042092;28;20051;-47
2023/02/01 01:33:38;;;;;;;4.90;1.65;;;21.20;31.40;;;;;;5059509;28;20130;-46
2023/02/01 01:36:11;;;;;;;6.05;2.13;;;21.20;31.40;;;;;;5041230;28;20040;-48
2023/02/01 01:38:38;;;;;;;5.03;1.80;;;21.20;31.40;;;;;;5058045;28;20340;-47
2023/02/01 01:41:04;;;;;;;6.00;2.13;;;21.20;31.40;;;;;;5060889;28;20036;-49
2023/02/01 01:43:53;;;;;;;4.35;1.60;;;21.20;31.60;;;;;;5046933;28;20029;-47
2023/02/01 01:46:37;;;;;;;2.72;1.27;;;21.20;31.50;;;;;;5039780;28;20037;-46
2023/02/01 01:49:12;;;;;;;4.67;1.47;;;21.20;31.50;;;;;;5050583;28;20079;-52
2023/02/01 01:52:00;;;;;;;6.70;1.77;;;21.10;31.50;;;;;;5057909;28;20397;-51
2023/02/01 01:54:44;;;;;;;5.10;1.92;;;21.10;31.50;;;;;;5044726;28;20123;-52
2023/02/01 01:57:27;;;;;;;7.43;1.67;;;21.10;31.60;;;;;;5039138;28;20036;-49
2023/02/01 02:00:07;;;;;;;5.35;2.03;;;21.10;31.60;;;;;;5045235;28;20033;-48
2023/02/01 02:02:41;;;;;;;5.60;1.92;;;21.10;31.70;;;;;;5063637;28;20060;-47
2023/02/01 02:05:08;;;;;;;4.78;1.50;;;21.10;31.70;;;;;;5043724;28;20102;-46
2023/02/01 02:07:38;;;;;;;6.07;1.80;;;21.10;31.70;;;;;;5047277;28;20036;-46
2023/02/01 02:10:10;;;;;;;3.83;1.63;;;21.10;31.70;;;;;;5047919;28;20036;-47
2023/02/01 02:12:41;;;;;;;4.75;1.70;;;21.00;31.70;;;;;;5060938;28;20049;-51
2023/02/01 02:15:12;;;;;;;7.70;1.90;;;21.00;31.70;;;;;;5057504;28;20137;-51
2023/02/01 02:17:51;;;;;;;5.43;1.63;;;21.00;31.70;;;;;;5059326;28;20135;-49
2023/02/01 02:20:40;;;;;;;6.55;1.80;;;21.00;31.70;;;;;;5061942;28;20488;-49
2023/02/01 02:23:41;;;;;;;4.18;1.60;;;21.00;31.70;;;;;;5065110;28;20025;-48
2023/02/01 02:26:18;;;;;;;5.63;1.70;;;21.00;31.70;;;;;;5061978;28;20024;-51
2023/02/01 02:29:10;;;;;;;5.43;1.52;;;21.00;32.40;;;;;;5042618;28;20033;-52
2023/02/01 02:31:39;;;;;;;5.40;1.80;;;21.00;31.80;;;;;;5042351;28;20044;-48
2023/02/01 02:34:59;;;;;;;4.45;1.75;;;21.00;31.80;;;;;;5041769;28;20032;-49
2023/02/01 02:37:40;;;;;;;4.35;1.58;;;21.00;31.80;;;;;;4948984;29;20046;-48
2023/02/01 02:40:21;;;;;;;5.50;1.60;;;21.00;31.80;;;;;;4951942;29;20039;-49
2023/02/01 02:48:50;;;;;;;5.65;1.88;;;20.90;31.80;;;;;;5044148;28;20040;-47
2023/02/01 03:05:36;;;;;;;8.82;1.52;;;20.80;31.80;;;;;;5061158;28;20390;-46
2023/02/01 03:08:11;;;;;;;3.67;1.33;;;20.90;31.80;;;;;;5059470;28;20051;-46
2023/02/01 03:10:49;;;;;;;;;;;20.80;31.80;;;;;;5040560;28;20071;-46
2023/02/01 03:13:42;;;;;;;5.00;1.50;;;20.80;31.80;;;;;;5043701;28;20007;-53
2023/02/01 03:16:26;;;;;;;7.03;1.58;;;20.80;31.80;;;;;;5041747;28;20040;-45
2023/02/01 03:19:17;;;;;;;4.83;1.83;;;20.80;31.80;;;;;;5039429;28;20129;-50
2023/02/01 03:21:50;;;;;;;6.10;2.15;;;20.80;31.80;;;;;;5049240;28;22376;-50
2023/02/01 03:24:35;;;;;;;4.43;1.60;;;20.80;31.80;;;;;;5041324;28;20460;-45
2023/02/01 03:27:07;;;;;;;4.75;1.33;;;20.80;31.90;;;;;;5059861;28;20035;-48
2023/02/01 03:29:40;;;;;;;4.65;1.50;;;20.80;31.90;;;;;;5042360;28;20037;-51
2023/02/01 03:32:09;;;;;;;5.95;1.67;;;20.80;31.90;;;;;;5038073;28;20471;-49
2023/02/01 03:34:36;;;;;;;6.53;1.70;;;20.80;32.00;;;;;;5041569;28;20467;-50
2023/02/01 03:37:09;;;;;;;5.88;1.80;;;20.70;31.90;;;;;;5027635;28;20051;-53
2023/02/01 03:39:44;;;;;;;2.83;1.30;;;20.80;32.00;;;;;;5042668;28;20047;-52
2023/02/01 03:42:44;;;;;;;6.28;1.83;;;20.70;32.00;;;;;;5042535;28;20055;-47
2023/02/01 03:45:18;;;;;;;6.20;1.83;;;20.70;32.00;;;;;;5039433;28;20028;-50
2023/02/01 03:47:49;;;;;;;5.53;2.08;;;20.70;32.00;;;;;;5041172;28;20032;-51
2023/02/01 03:50:18;;;;;;;5.72;1.88;;;20.70;32.00;;;;;;5039621;28;20024;-47
2023/02/01 03:52:51;;;;;;;5.57;1.77;;;20.70;32.00;;;;;;5042571;28;20123;-50
2023/02/01 03:55:20;;;;;;;7.07;2.20;;;20.70;32.00;;;;;;5044794;28;20337;-49
2023/02/01 03:57:56;;;;;;;3.88;1.52;;;20.70;32.00;;;;;;5045552;28;20033;-47
2023/02/01 04:00:25;;;;;;;5.38;1.73;;;20.70;32.00;;;;;;5043131;28;20089;-49
2023/02/01 04:02:53;;;;;;;6.30;2.47;;;20.70;32.00;;;;;;5041835;28;20025;-48
2023/02/01 04:05:21;;;;;;;4.70;1.80;;;20.70;32.00;;;;;;5045021;28;20119;-44
2023/02/01 04:08:05;;;;;;;5.22;1.80;;;20.70;32.10;;;;;;5046044;28;20173;-53
2023/02/01 04:10:31;;;;;;;4.53;1.75;;;20.60;32.10;;;;;;5067276;28;20103;-44
2023/02/01 04:12:57;;;;;;;6.30;1.88;;;20.60;32.10;;;;;;5068629;28;20051;-47
2023/02/01 04:15:23;;;;;;;6.43;1.77;;;20.60;32.10;;;;;;5062450;28;20047;-51
2023/02/01 04:17:49;;;;;;;6.35;2.03;;;20.60;32.20;;;;;;5062904;28;20029;-50
2023/02/01 04:20:15;;;;;;;6.05;1.83;;;20.60;32.20;;;;;;5050238;28;20051;-50
2023/02/01 04:22:41;;;;;;;5.38;1.80;;;20.60;32.20;;;;;;5060165;28;20364;-49
2023/02/01 04:25:07;;;;;;;4.93;1.85;;;20.60;32.20;;;;;;5063978;28;20105;-49
2023/02/01 04:27:34;;;;;;;6.53;1.85;;;20.60;32.20;;;;;;5067443;28;20035;-50
2023/02/01 04:30:00;;;;;;;5.63;1.95;;;20.60;32.30;;;;;;5061046;28;20029;-53
2023/02/01 04:32:26;;;;;;;4.80;1.73;;;20.60;32.30;;;;;;5063948;28;20334;-49
2023/02/01 04:34:52;;;;;;;5.00;1.90;;;20.60;32.30;;;;;;5062923;28;20086;-47
2023/02/01 04:37:18;;;;;;;6.93;2.00;;;20.50;32.30;;;;;;5062695;28;20036;-47
2023/02/01 04:39:44;;;;;;;6.05;2.05;;;20.60;32.30;;;;;;5059141;28;20405;-45
2023/02/01 04:42:09;;;;;;;4.38;1.65;;;20.50;32.30;;;;;;5067263;28;20034;-46
2023/02/01 04:44:37;;;;;;;5.18;1.65;;;20.50;32.30;;;;;;5063123;28;20044;-49
2023/02/01 04:47:03;;;;;;;5.68;1.95;;;20.60;32.40;;;;;;5063794;28;20492;-52
2023/02/01 04:49:29;;;;;;;5.32;1.98;;;20.50;32.30;;;;;;5065227;28;20096;-50
2023/02/01 04:51:55;;;;;;;5.40;1.60;;;20.50;32.30;;;;;;5041816;28;20119;-51
2023/02/01 04:54:21;;;;;;;4.80;2.05;;;20.50;32.30;;;;;;5063885;28;20348;-48
2023/02/01 04:56:46;;;;;;;5.57;1.63;;;20.50;32.40;;;;;;5065958;28;20051;-47
2023/02/01 04:59:12;;;;;;;5.72;1.70;;;20.50;32.40;;;;;;5062525;28;20040;-47
2023/02/01 05:01:38;;;;;;;7.38;1.80;;;20.50;32.40;;;;;;5060265;28;20451;-49
2023/02/01 05:04:04;;;;;;;5.72;1.75;;;20.50;32.40;;;;;;5061791;28;20086;-47
2023/02/01 05:06:30;;;;;;;5.85;1.90;;;20.50;32.40;;;;;;5059467;28;20025;-48
2023/02/01 05:08:56;;;;;;;6.22;1.65;;;20.50;32.40;;;;;;5061724;28;20021;-50
2023/02/01 05:14:06;;;;;;;5.88;1.52;;;20.50;32.40;;;;;;5067200;28;20060;-49
2023/02/01 05:16:32;;;;;;;6.47;1.90;;;20.40;32.40;;;;;;5061109;28;20047;-52
2023/02/01 05:18:58;;;;;;;5.93;2.25;;;20.40;32.40;;;;;;5063940;28;20506;-51
2023/02/01 05:21:25;;;;;;;5.63;1.67;;;20.50;32.40;;;;;;5043430;28;20044;-47
2023/02/01 05:26:39;;;;;;;5.72;2.03;;;20.40;32.40;;;;;;5066213;28;20044;-47
2023/02/01 05:29:06;;;;;;;6.32;2.10;;;20.40;32.40;;;;;;5062283;28;20340;-46
2023/02/01 05:31:33;;;;;;;6.30;1.92;;;20.40;32.40;;;;;;5064083;28;20025;-46
2023/02/01 05:33:59;;;;;;;6.03;1.75;;;20.40;32.40;;;;;;5063495;28;20039;-48
2023/02/01 05:36:25;;;;;;;5.82;1.88;;;20.40;32.40;;;;;;5058525;28;20032;-47
2023/02/01 05:38:51;;;;;;;4.93;1.52;;;20.40;32.40;;;;;;5060105;28;20112;-48
2023/02/01 05:41:17;;;;;;;4.75;1.77;;;20.40;32.40;;;;;;5061656;28;20108;-51
2023/02/01 05:43:42;;;;;;;4.90;1.75;;;20.40;32.40;;;;;;5064509;28;20112;-50
2023/02/01 05:46:12;;;;;;;4.75;1.52;;;20.40;32.40;;;;;;5060922;28;20032;-48
2023/02/01 05:48:39;;;;;;;5.22;1.83;;;20.40;32.40;;;;;;5061105;28;20021;-47
2023/02/01 05:51:05;;;;;;;3.80;1.50;;;20.40;32.40;;;;;;5063907;28;20079;-52
2023/02/01 05:53:31;;;;;;;4.38;1.90;;;20.40;32.50;;;;;;5060234;28;20049;-54
2023/02/01 05:55:56;;;;;;;5.40;2.20;;;20.40;32.50;;;;;;5061237;28;20418;-53
2023/02/01 05:58:22;;;;;;;4.93;1.80;;;20.30;32.40;;;;;;5066036;28;20036;-51
2023/02/01 06:00:48;;;;;;;6.70;1.88;;;20.40;32.50;;;;;;5056796;28;20025;-53
2023/02/01 06:03:14;;;;;;;6.20;2.13;;;20.40;32.50;;;;;;5060999;28;20028;-53
2023/02/01 06:05:40;;;;;;;7.00;2.25;;;20.40;32.50;;;;;;5058819;28;20016;-49
2023/02/01 06:08:07;;;;;;;7.28;2.03;;;20.30;32.50;;;;;;5058035;28;21406;-49
2023/02/01 06:10:33;;;;;;;4.72;1.73;;;20.40;32.60;;;;;;5062159;28;20056;-53
2023/02/01 06:12:59;;;;;;;4.07;1.80;;;20.30;32.50;;;;;;5058989;28;20045;-47
2023/02/01 06:15:25;;;;;;;6.18;2.00;;;20.30;32.50;;;;;;5061221;28;20491;-47
2023/02/01 06:17:50;;;;;;;4.82;1.60;;;20.30;32.50;;;;;;5061568;28;20041;-50
2023/02/01 06:20:17;;;;;;;5.97;1.83;;;20.30;32.50;;;;;;5062742;28;20059;-49
2023/02/01 06:22:42;;;;;;;5.80;2.10;;;20.30;32.50;;;;;;5062944;28;20029;-45
2023/02/01 06:25:10;;;;;;;4.78;1.85;;;20.30;32.60;;;;;;5063891;28;20462;-46
2023/02/01 06:27:36;;;;;;;7.97;1.52;;;20.30;32.60;;;;;;5059038;28;20894;-48
2023/02/01 06:30:04;;;;;;;3.92;1.52;;;20.30;32.60;;;;;;5059502;28;20126;-50
2023/02/01 06:32:30;;;;;;;4.97;1.60;;;20.30;32.60;;;;;;5044892;28;20459;-49
2023/02/01 06:34:56;;;;;;;4.72;1.65;;;20.30;33.20;;;;;;5040129;28;20029;-50
2023/02/01 06:37:24;;;;;;;5.40;1.73;;;20.30;32.60;;;;;;5062761;28;20040;-47
2023/02/01 06:39:50;;;;;;;7.10;2.17;;;20.30;32.60;;;;;;5055782;28;20144;-48
2023/02/01 06:42:16;;;;;;;7.50;1.98;;;20.20;32.50;;;;;;5062739;28;20352;-47
2023/02/01 06:44:42;;;;;;;4.40;1.60;;;20.20;32.50;;;;;;5062696;28;20063;-48
2023/02/01 06:47:08;;;;;;;3.92;1.38;;;20.30;32.60;;;;;;5058146;28;20057;-46
2023/02/01 06:49:34;;;;;;;6.00;2.13;;;20.20;32.50;;;;;;5059754;28;20461;-47
2023/02/01 06:52:00;;;;;;;4.72;1.70;;;20.20;32.50;;;;;;5059243;28;20498;-45
2023/02/01 06:54:27;;;;;;;4.75;1.83;;;20.20;32.60;;;;;;5059557;28;20023;-48
2023/02/01 06:56:53;;;;;;;3.78;1.58;;;20.20;32.60;;;;;;5056720;28;20119;-48
2023/02/01 06:59:19;;;;;;;6.70;2.20;;;20.20;32.60;;;;;;5060157;28;20512;-52
2023/02/01 07:01:45;;;;;;;5.57;2.13;;;20.20;32.60;;;;;;5060869;28;20444;-46
2023/02/01 07:04:12;;;;;;;5.72;1.95;;;20.20;32.60;;;;;;5040577;28;20028;-47
2023/02/01 07:06:39;;;;;;;6.57;1.88;;;20.20;33.20;;;;;;5053431;28;20082;-48
2023/02/01 07:09:05;;;;;;;5.97;1.65;;;20.20;32.60;;;;;;5062276;28;20039;-45
2023/02/01 07:11:31;;;;;;;4.70;1.65;;;20.20;32.60;;;;;;5061617;28;20025;-48
2023/02/01 07:13:58;;;;;;;5.35;1.77;;;20.20;32.60;;;;;;5044271;28;20463;-49
2023/02/01 07:16:24;;;;;;;4.93;1.73;;;20.20;32.70;;;;;;5061643;28;20036;-47
2023/02/01 07:18:52;;;;;;;5.10;2.15;;;20.20;32.70;;;;;;5058471;28;20056;-46
2023/02/01 07:21:19;;;;;;;10.55;1.90;;;20.20;32.70;;;;;;5059674;28;20376;-53
2023/02/01 07:23:45;;;;;;;7.13;2.28;;;20.20;32.80;;;;;;5059147;28;20391;-51
2023/02/01 07:26:13;;;;;;;5.20;1.63;;;20.20;32.80;;;;;;5062154;28;20375;-48
2023/02/01 07:28:40;;;;;;;6.45;1.88;;;20.20;32.80;;;;;;5061557;28;20021;-48
2023/02/01 07:31:09;;;;;;;6.10;1.63;;;20.20;32.80;;;;;;5058096;28;20036;-45
2023/02/01 07:33:34;;;;;;;6.03;1.85;;;20.20;32.80;;;;;;5057521;28;20086;-45
2023/02/01 07:36:02;;;;;;;5.53;1.95;;;20.20;32.80;;;;;;5058137;28;20040;-47
2023/02/01 07:38:28;;;;;;;6.78;2.25;;;20.20;32.80;;;;;;5054024;28;20089;-49
2023/02/01 07:41:02;;;;;;;6.30;2.00;;;20.10;32.80;;;;;;5046265;28;20106;-48
2023/02/01 07:43:29;;;;;;;5.97;2.05;;;20.10;32.80;;;;;;5050435;28;20024;-46
2023/02/01 07:45:55;;;;;;;6.78;1.88;;;20.10;32.80;;;;;;5055998;28;20033;-46
2023/02/01 07:48:23;;;;;;;6.15;2.00;;;20.10;32.80;;;;;;5059453;28;20035;-47
2023/02/01 07:50:56;;;;;;;5.13;1.65;;;20.10;32.80;;;;;;5040754;28;20029;-52
2023/02/01 07:53:22;;;;;;;5.65;2.10;;;20.10;32.80;;;;;;5051074;28;20095;-49
2023/02/01 07:55:48;;;;;;;6.50;2.40;;;20.10;32.80;;;;;;5059041;28;20036;-48
2023/02/01 07:58:14;;;;;;;7.20;2.22;;;20.10;32.80;;;;;;5052374;28;20031;-48
2023/02/01 08:03:24;;;;;;;6.22;2.10;;;20.10;33.00;;;;;;5057845;28;20643;-45
2023/02/01 08:05:55;;;;;;;8.45;2.05;;;20.10;33.10;;;;;;5038352;28;20028;-54
2023/02/01 08:08:21;;;;;;;7.32;2.42;;;20.20;33.30;;;;;;5059643;28;20476;-47
2023/02/01 08:10:47;;;;;;;7.00;2.33;;;20.20;33.40;;;;;;5056409;28;20042;-50
2023/02/01 08:13:14;;;;;;;6.47;2.30;;;20.20;33.50;;;;;;5043895;28;20041;-49
2023/02/01 08:15:40;;;;;;;11.73;3.47;;;20.30;33.60;;;;;;5054591;28;20037;-47
2023/02/01 08:18:06;;;;;;;13.63;3.30;;;20.30;33.70;;;;;;5055465;28;20090;-52
2023/02/01 08:20:34;;;;;;;12.18;3.92;;;20.40;33.90;;;;;;5052620;28;20029;-53
2023/02/01 08:23:00;;;;;;;9.25;3.47;;;20.40;34.00;;;;;;5057653;28;20029;-49
2023/02/01 08:25:25;;;;;;;10.57;3.92;;;20.50;34.10;;;;;;5059571;28;20025;-47
2023/02/01 08:27:51;;;;;;;15.07;4.03;;;20.50;34.10;;;;;;5062235;28;20040;-49
2023/02/01 08:30:17;;;;;;;10.50;2.88;;;20.60;34.10;;;;;;5063436;28;20369;-47
2023/02/01 08:32:43;;;;;;;8.98;3.30;;;20.60;34.10;;;;;;5058829;28;20044;-47
2023/02/01 08:35:09;;;;;;;10.75;3.45;;;20.70;34.10;;;;;;5057934;28;20020;-49
2023/02/01 08:37:35;;;;;;;9.52;3.38;;;20.70;34.10;;;;;;5056301;28;20441;-51
2023/02/01 08:40:01;;;;;;;10.23;3.22;;;20.80;34.00;;;;;;5053675;28;20037;-52
2023/02/01 08:45:11;;;;;;;9.20;2.85;;;20.90;34.00;;;;;;5053580;28;20037;-48
2023/02/01 08:47:38;;;;;;;8.70;2.50;;;21.00;33.90;;;;;;5057055;28;20020;-50
2023/02/01 08:50:05;;;;;;;7.95;2.40;;;21.00;33.80;;;;;;5054802;28;20055;-51
2023/02/01 08:52:31;;;;;;;8.05;2.70;;;21.10;33.80;;;;;;5053583;28;20028;-52
2023/02/01 08:54:57;;;;;;;6.72;2.47;;;21.10;33.70;;;;;;5058068;28;20090;-51
2023/02/01 08:57:23;;;;;;;8.75;2.30;;;21.20;33.60;;;;;;5059076;28;20033;-53
2023/02/01 08:59:48;;;;;;;9.68;2.33;;;21.30;33.60;;;;;;5063343;28;20024;-49
2023/02/01 09:02:16;;;;;;;8.02;2.33;;;21.30;33.50;;;;;;5059073;28;20020;-49
2023/02/01 09:04:42;;;;;;;7.78;2.63;;;21.40;33.50;;;;;;5057953;28;20372;-48
2023/02/01 09:07:09;;;;;;;7.22;2.20;;;21.40;33.40;;;;;;5056843;28;20437;-53
2023/02/01 09:09:35;;;;;;;9.30;2.75;;;21.50;33.50;;;;;;5059831;28;20044;-51
2023/02/01 09:12:02;;;;;;;6.20;2.30;;;21.50;33.40;;;;;;5057758;28;20036;-51
2023/02/01 09:14:28;;;;;;;9.25;2.58;;;21.50;33.40;;;;;;5060029;28;20495;-52
2023/02/01 09:16:54;;;;;;;7.85;2.40;;;21.60;33.30;;;;;;5065293;28;20036;-52
2023/02/01 09:19:20;;;;;;;5.85;1.98;;;21.60;33.20;;;;;;5065750;28;20352;-48
2023/02/01 09:21:45;;;;;;;5.30;1.90;;;21.60;33.00;;;;;;5064004;28;20509;-49
2023/02/01 09:24:12;;;;;;;8.52;2.35;;;21.70;32.90;;;;;;5064405;28;20043;-54
2023/02/01 09:26:37;;;;;;;7.82;2.08;;;21.70;32.80;;;;;;5065517;28;20082;-53
2023/02/01 09:29:06;;;;;;;5.35;1.60;;;21.80;32.60;;;;;;5066096;28;20024;-50
2023/02/01 09:31:32;;;;;;;5.20;2.03;;;21.80;32.60;;;;;;5065679;28;20478;-52
2023/02/01 09:33:58;;;;;;;6.70;2.30;;;21.80;32.50;;;;;;5063174;28;20465;-56
2023/02/01 09:36:24;;;;;;;6.10;1.95;;;21.80;32.40;;;;;;5064048;28;20051;-50
2023/02/01 09:38:51;;;;;;;5.43;1.85;;;21.90;32.30;;;;;;5067107;28;20032;-50
2023/02/01 09:41:55;;;;;;;6.35;2.10;;;21.90;32.20;;;;;;5062927;28;20438;-53
2023/02/01 09:44:53;;;;;;;6.55;2.13;;;21.90;32.10;;;;;;5064938;28;20017;-51
2023/02/01 09:47:23;;;;;;;4.95;2.00;;;21.90;32.00;;;;;;5064942;28;20124;-46
2023/02/01 09:50:20;;;;;;;4.55;2.00;;;22.00;32.00;;;;;;5064888;28;20075;-49
2023/02/01 09:53:30;;;;;;;5.18;1.80;;;22.00;31.90;;;;;;5063621;28;20036;-50
2023/02/01 09:56:24;;;;;;;6.07;1.80;;;22.00;31.80;;;;;;5064219;28;20512;-46
2023/02/01 09:59:16;;;;;;;6.35;2.22;;;22.00;31.80;;;;;;5056297;28;20178;-52
2023/02/01 10:01:42;;;;;;;5.47;1.75;;;22.00;31.70;;;;;;5065677;28;20029;-47
2023/02/01 10:04:13;;;;;;;5.25;1.77;;;22.00;31.70;;;;;;5064120;28;20085;-52
2023/02/01 10:06:54;;;;;;;5.88;2.15;;;22.00;32.30;;;;;;5067404;28;20095;-49
2023/02/01 10:09:38;;;;;;;8.48;2.28;;;22.00;31.70;;;;;;5059244;28;20467;-48
2023/02/01 10:12:41;;;;;;;6.50;1.73;;;22.00;31.60;;;;;;5055553;28;20298;-47
2023/02/01 10:15:41;;;;;;;4.28;1.70;;;22.00;31.60;;;;;;5060872;28;20037;-50
2023/02/01 10:18:28;;;;;;;5.03;1.70;;;22.00;31.60;;;;;;5059361;28;20477;-53
2023/02/01 10:21:30;;;;;;;7.35;2.13;;;22.00;31.70;;;;;;5056909;28;20071;-50
2023/02/01 10:24:16;;;;;;;5.60;1.85;;;22.00;31.80;;;;;;5067825;28;20392;-52
2023/02/01 10:26:51;;;;;;;6.97;1.92;;;22.00;31.80;;;;;;5068310;28;20064;-47
2023/02/01 10:29:19;;;;;;;;;;;22.00;31.80;;;;;;5058531;28;20025;-51
2023/02/01 10:31:45;;;;;;;5.28;1.50;;;22.00;31.70;;;;;;5063386;28;20023;-51
2023/02/01 10:34:24;;;;;;;4.47;1.88;;;22.00;31.70;;;;;;5074565;28;20111;-48
2023/02/01 10:37:19;;;;;;;6.55;1.80;;;22.00;31.70;;;;;;5058276;28;20054;-51
2023/02/01 10:39:47;;;;;;;8.07;2.17;;;22.00;31.70;;;;;;5073531;28;20392;-51
2023/02/01 10:42:13;;;;;;;4.97;1.60;;;22.00;31.70;;;;;;5061849;28;20106;-49
2023/02/01 10:44:45;;;;;;;3.92;1.52;;;22.00;31.70;;;;;;5054641;28;20032;-49
2023/02/01 10:47:11;;;;;;;4.95;1.85;;;22.00;31.70;;;;;;5037657;28;20044;-52
2023/02/01 10:49:49;;;;;;;4.93;2.10;;;22.00;31.80;;;;;;5055037;28;20039;-51
2023/02/01 10:52:53;;;;;;;5.78;1.88;;;22.00;32.00;;;;;;5061379;28;20029;-48
2023/02/01 10:55:34;;;;;;;5.20;1.50;;;22.10;32.20;;;;;;5038264;28;20029;-48
2023/02/01 10:58:06;;;;;;;5.70;1.83;;;22.10;32.30;;;;;;5047517;28;20091;-48
2023/02/01 11:00:47;;;;;;;6.65;2.13;;;22.10;32.40;;;;;;5062997;28;20033;-52
2023/02/01 11:03:30;;;;;;;4.95;1.80;;;22.10;32.60;;;;;;5060740;28;20038;-50
2023/02/01 11:05:58;;;;;;;4.55;1.60;;;22.10;32.70;;;;;;5065765;28;20059;-52
2023/02/01 11:08:24;;;;;;;4.55;1.83;;;22.10;32.90;;;;;;5065747;28;20039;-54
2023/02/01 11:11:02;;;;;;;8.32;1.80;;;22.10;33.00;;;;;;5072883;28;20031;-50
2023/02/01 11:13:37;;;;;;;5.07;1.75;;;22.10;33.00;;;;;;5051875;28;20071;-50
2023/02/01 11:16:05;;;;;;;6.22;2.25;;;22.10;33.00;;;;;;5066997;28;20047;-46
2023/02/01 11:18:36;;;;;;;5.43;2.08;;;22.10;33.00;;;;;;5043849;28;20166;-47
2023/02/01 11:21:04;;;;;;;4.22;1.48;;;22.10;33.60;;;;;;5055513;28;20090;-48
2023/02/01 11:23:33;;;;;;;9.02;2.40;;;22.10;32.80;;;;;;5055887;28;20033;-50
2023/02/01 11:26:07;;;;;;;6.95;1.70;;;22.10;32.70;;;;;;5054979;28;20033;-45
2023/02/01 11:28:35;;;;;;;5.78;2.28;;;22.10;32.80;;;;;;5056907;28;20024;-48
2023/02/01 11:31:05;;;;;;;4.97;1.77;;;22.10;32.70;;;;;;5071809;28;20033;-48
2023/02/01 11:33:35;;;;;;;5.75;1.83;;;22.10;32.80;;;;;;5072402;28;20112;-49
2023/02/01 11:36:10;;;;;;;5.80;1.50;;;22.10;32.90;;;;;;5058739;28;20041;-54
2023/02/01 11:38:36;;;;;;;6.53;1.55;;;22.10;32.90;;;;;;5054971;28;20033;-52
2023/02/01 11:41:13;;;;;;;5.22;1.63;;;22.10;32.80;;;;;;5059420;28;20108;-49
2023/02/01 11:44:01;;;;;;;5.35;1.75;;;22.10;32.70;;;;;;5070775;28;20040;-50
2023/02/01 11:46:33;;;;;;;4.68;1.85;;;22.10;32.70;;;;;;5070340;28;20028;-49
2023/02/01 11:49:21;;;;;;;7.35;1.92;;;22.10;32.70;;;;;;5071592;28;20387;-50
2023/02/01 11:52:16;;;;;;;7.05;2.20;;;22.10;32.70;;;;;;5056998;28;20039;-50
2023/02/01 11:55:13;;;;;;;5.35;1.67;;;22.10;32.70;;;;;;5057752;28;20411;-43
2023/02/01 11:58:09;;;;;;;6.95;1.73;;;22.10;32.70;;;;;;5067804;28;20075;-48
2023/02/01 12:00:41;;;;;;;7.30;2.00;;;22.10;32.70;;;;;;5055562;28;20036;-48
2023/02/01 12:03:48;;;;;;;5.80;1.67;;;22.10;33.00;;;;;;5059047;28;20029;-47
2023/02/01 12:06:26;;;;;;;6.55;1.70;;;22.10;33.10;;;;;;5040721;28;20041;-48
2023/02/01 12:09:17;;;;;;;3.92;1.70;;;22.10;33.20;;;;;;5056085;28;20021;-47
2023/02/01 12:11:59;;;;;;;6.18;1.73;;;22.20;33.30;;;;;;5036970;28;20090;-52
2023/02/01 12:14:45;;;;;;;5.57;1.60;;;22.30;33.30;;;;;;5055839;28;20040;-50
2023/02/01 12:17:56;;;;;;;5.35;1.63;;;22.40;33.20;;;;;;5055896;28;20037;-50
2023/02/01 12:20:50;;;;;;;4.05;1.58;;;22.50;33.00;;;;;;5025740;28;20068;-54
2023/02/01 12:23:30;;;;;;;7.03;1.90;;;22.60;32.90;;;;;;5061686;28;20033;-51
2023/02/01 12:26:02;;;;;;;5.53;1.42;;;22.70;32.50;;;;;;5057325;28;20043;-51
2023/02/01 12:28:37;;;;;;;4.43;1.63;;;22.80;32.30;;;;;;5056727;28;20032;-46
2023/02/01 12:31:13;;;;;;;5.28;1.80;;;22.90;32.00;;;;;;5064449;28;20044;-50
2023/02/01 12:33:57;;;;;;;5.13;1.75;;;23.00;31.90;;;;;;5060954;28;20096;-53
2023/02/01 12:36:40;;;;;;;5.07;1.75;;;23.00;31.80;;;;;;5060293;28;20035;-52
2023/02/01 12:39:21;;;;;;;4.15;1.33;;;23.10;31.80;;;;;;5068209;28;20052;-55
2023/02/01 12:41:53;;;;;;;4.10;1.60;;;23.20;31.70;;;;;;5063340;28;20025;-52
2023/02/01 12:44:32;;;;;;;7.43;1.65;;;23.20;31.60;;;;;;5058060;28;20510;-54
2023/02/01 12:47:15;;;;;;;3.75;1.45;;;23.20;31.40;;;;;;5058467;28;20444;-54
2023/02/01 12:50:12;;;;;;;3.90;1.40;;;23.30;31.30;;;;;;5057905;28;20039;-54
2023/02/01 12:52:46;;;;;;;5.32;1.70;;;23.30;31.20;;;;;;5058214;28;20082;-53
2023/02/01 12:55:28;;;;;;;5.93;1.80;;;23.30;31.10;;;;;;5058477;28;20107;-49
2023/02/01 12:58:20;;;;;;;4.35;1.40;;;23.30;31.00;;;;;;5058014;28;20104;-53
2023/02/01 13:01:08;;;;;;;5.00;1.70;;;23.30;30.90;;;;;;5057991;28;20033;-52
2023/02/01 13:04:09;;;;;;;4.80;1.73;;;23.40;30.90;;;;;;5057814;28;20108;-47
2023/02/01 13:06:39;;;;;;;4.75;1.92;;;23.40;30.90;;;;;;4973859;28;20045;-54
2023/02/01 13:09:17;;;;;;;3.83;1.60;;;23.40;30.80;;;;;;5061011;28;20029;-50
2023/02/01 13:11:46;;;;;;;6.20;1.60;;;23.40;30.70;;;;;;5057784;28;20044;-52
2023/02/01 13:14:35;;;;;;;4.90;1.60;;;23.40;30.70;;;;;;5056652;28;20045;-52
2023/02/01 13:17:05;;;;;;;3.45;1.48;;;23.40;30.60;;;;;;5058626;28;20041;-58
2023/02/01 13:19:59;;;;;;;7.57;1.90;;;23.40;30.60;;;;;;5057535;28;20512;-52
2023/02/01 13:22:31;;;;;;;6.40;1.88;;;23.40;30.60;;;;;;5063300;28;20032;-47
2023/02/01 13:25:11;;;;;;;4.80;1.90;;;23.40;30.70;;;;;;5063925;28;20120;-52
2023/02/01 13:27:38;;;;;;;4.93;1.92;;;23.40;31.00;;;;;;5059814;28;20044;-54
2023/02/01 13:30:19;;;;;;;3.92;1.50;;;23.50;31.30;;;;;;5060510;28;20318;-52
2023/02/01 13:33:19;;;;;;;5.18;2.08;;;23.50;31.30;;;;;;5057918;28;20032;-51
2023/02/01 13:36:13;;;;;;;5.03;1.48;;;23.50;31.40;;;;;;5057194;28;20032;-53
2023/02/01 13:39:04;;;;;;;4.57;1.55;;;23.60;31.50;;;;;;5076495;28;20368;-53
2023/02/01 13:41:42;;;;;;;5.25;1.60;;;23.60;31.40;;;;;;5061529;28;20032;-52
2023/02/01 13:44:15;;;;;;;4.93;1.60;;;23.60;31.40;;;;;;5057444;28;20052;-55
2023/02/01 13:46:44;;;;;;;4.88;1.92;;;23.70;31.40;;;;;;5056763;28;20032;-53
2023/02/01 13:49:23;;;;;;;5.10;1.65;;;23.70;31.30;;;;;;5055921;28;20036;-53